createdAt,value
2023-02-08T00:03:53.251Z,3.40
2023-02-08T00:08:55.289Z,3.40
2023-02-08T00:13:59.858Z,2.40
2023-02-08T00:19:01.592Z,3.30
2023-02-08T00:24:03.481Z,4.10
2023-02-08T00:29:05.230Z,3.00
2023-02-08T00:34:08.719Z,3.30
2023-02-08T00:39:10.497Z,2.50
2023-02-08T00:44:12.199Z,2.90
2023-02-08T00:49:13.918Z,3.30
2023-02-08T00:54:21.070Z,3.00
2023-02-08T00:59:22.764Z,2.50
2023-02-08T01:04:24.464Z,2.70
2023-02-08T01:09:26.095Z,3.00
2023-02-08T01:14:27.741Z,2.80
2023-02-08T01:19:29.446Z,2.70
2023-02-08T01:24:31.151Z,2.60
2023-02-08T01:29:33.072Z,3.30
2023-02-08T01:34:34.818Z,2.30
2023-02-08T01:39:36.438Z,2.30
2023-02-08T01:45:09.017Z,2.70
2023-02-08T01:50:11.972Z,3.00
2023-02-08T01:55:31.630Z,2.40
2023-02-08T02:00:33.968Z,2.90
2023-02-08T02:05:41.770Z,3.10
2023-02-08T02:10:44.255Z,2.20
2023-02-08T02:15:46.512Z,2.50
2023-02-08T02:21:07.941Z,2.60
2023-02-08T02:26:42.176Z,3.10
2023-02-08T02:31:49.604Z,2.80
2023-02-08T02:37:02.655Z,2.90
2023-02-08T02:42:26.045Z,2.80
2023-02-08T02:47:37.855Z,2.10
2023-02-08T02:53:08.621Z,2.80
2023-02-08T02:58:16.656Z,2.40
2023-02-08T03:03:25.186Z,2.40
2023-02-08T03:08:48.116Z,1.60
2023-02-08T03:14:02.569Z,1.90
2023-02-08T03:19:28.497Z,3.00
2023-02-08T03:24:38.495Z,2.40
2023-02-08T03:29:52.784Z,2.00
2023-02-08T03:35:02.705Z,1.70
2023-02-08T03:40:28.446Z,2.50
2023-02-08T03:45:35.705Z,2.80
2023-02-08T03:50:40.394Z,2.20
2023-02-08T03:55:47.294Z,2.20
2023-02-08T04:00:56.253Z,2.00
2023-02-08T04:05:58.475Z,2.80
2023-02-08T04:11:00.170Z,2.30
2023-02-08T04:16:01.928Z,2.10
2023-02-08T04:21:04.282Z,2.10
2023-02-08T04:26:07.610Z,1.70
2023-02-08T04:36:11.347Z,2.20
2023-02-08T04:41:13.074Z,2.20
2023-02-08T04:46:15.207Z,2.10
2023-02-08T04:51:16.952Z,3.00
2023-02-08T04:56:18.640Z,2.40
2023-02-08T05:01:20.721Z,1.80
2023-02-08T05:06:22.315Z,2.20
2023-02-08T05:11:25.472Z,2.60
2023-02-08T05:16:27.450Z,3.60
2023-02-08T05:21:29.051Z,2.60
2023-02-08T05:26:30.687Z,2.30
2023-02-08T05:31:33.057Z,2.30
2023-02-08T05:36:34.920Z,2.00
2023-02-08T05:41:36.602Z,2.90
2023-02-08T05:46:38.584Z,2.70
2023-02-08T05:51:40.437Z,2.70
2023-02-08T05:56:42.399Z,2.00
2023-02-08T06:01:44.124Z,2.40
2023-02-08T06:06:45.793Z,2.40
2023-02-08T06:11:47.443Z,2.50
2023-02-08T06:16:49.285Z,2.00
2023-02-08T06:21:51.134Z,2.60
2023-02-08T06:26:52.875Z,2.10
2023-02-08T06:31:54.730Z,2.50
2023-02-08T06:36:57.412Z,3.10
2023-02-08T06:41:59.223Z,2.60
2023-02-08T06:47:01.149Z,2.40
2023-02-08T06:52:02.800Z,2.40
2023-02-08T06:57:04.458Z,2.70
2023-02-08T07:02:07.011Z,2.50
2023-02-08T07:07:08.850Z,2.20
2023-02-08T07:12:10.509Z,2.30
2023-02-08T07:17:13.548Z,2.20
2023-02-08T07:22:15.179Z,2.30
2023-02-08T07:27:16.843Z,1.90
2023-02-08T07:32:18.823Z,2.20
2023-02-08T07:37:20.789Z,2.30
2023-02-08T07:42:22.509Z,2.20
2023-02-08T07:47:46.515Z,2.30
2023-02-08T07:52:48.182Z,2.00
2023-02-08T07:57:50.388Z,2.10
2023-02-08T08:02:52.319Z,2.30
2023-02-08T08:07:53.941Z,2.10
2023-02-08T08:12:55.556Z,1.70
2023-02-08T08:17:57.940Z,1.60
2023-02-08T08:23:00.710Z,1.80
2023-02-08T08:28:02.563Z,1.70
2023-02-08T08:33:04.402Z,1.70
2023-02-08T08:38:06.415Z,1.40
2023-02-08T08:43:08.148Z,1.70
2023-02-08T08:48:09.879Z,1.80
2023-02-08T08:53:11.657Z,1.40
2023-02-08T08:58:13.389Z,1.60
2023-02-08T09:03:15.230Z,1.60
2023-02-08T09:08:17.246Z,1.50
2023-02-08T09:13:20.069Z,1.40
2023-02-08T09:18:22.449Z,1.40
2023-02-08T09:23:24.225Z,1.10
2023-02-08T09:28:26.340Z,1.30
2023-02-08T09:33:28.105Z,1.30
2023-02-08T09:38:30.219Z,1.20
2023-02-08T09:43:41.582Z,1.50
2023-02-08T09:48:44.680Z,1.40
2023-02-08T09:53:52.663Z,1.40
2023-02-08T09:58:56.347Z,1.40
2023-02-08T10:04:05.796Z,1.30
2023-02-08T10:09:16.575Z,1.60
2023-02-08T10:14:23.567Z,1.90
2023-02-08T10:19:46.933Z,1.50
2023-02-08T10:25:40.913Z,1.20
2023-02-08T10:31:18.237Z,1.40
2023-02-08T10:36:29.597Z,1.50
2023-02-08T10:41:36.988Z,1.20
2023-02-08T10:46:46.837Z,1.20
2023-02-08T10:51:49.170Z,1.10
2023-02-08T10:57:19.939Z,1.00
2023-02-08T11:02:27.606Z,1.50
2023-02-08T11:07:30.190Z,1.50
2023-02-08T11:12:31.886Z,1.10
2023-02-08T11:17:34.085Z,1.10
2023-02-08T11:22:36.111Z,1.40
2023-02-08T11:27:44.896Z,1.10
2023-02-08T11:32:49.299Z,1.10
2023-02-08T11:37:53.980Z,0.80
2023-02-08T11:42:56.291Z,1.20
2023-02-08T11:47:59.299Z,1.20
2023-02-08T11:53:04.536Z,1.30
2023-02-08T11:58:20.392Z,1.20
2023-02-08T12:03:42.933Z,0.90
2023-02-08T12:09:03.927Z,1.30
2023-02-08T12:14:17.593Z,1.20
2023-02-08T12:19:47.324Z,1.10
2023-02-08T12:25:16.817Z,1.10
2023-02-08T12:30:43.607Z,1.20
2023-02-08T12:36:05.439Z,1.00
2023-02-08T12:41:13.733Z,1.30
2023-02-08T12:46:42.603Z,1.00
2023-02-08T12:51:57.119Z,0.90
2023-02-08T12:57:02.398Z,1.30
2023-02-08T13:02:16.298Z,0.90
2023-02-08T13:07:27.033Z,0.90
2023-02-08T13:12:35.015Z,1.20
2023-02-08T13:17:51.744Z,0.80
2023-02-08T13:22:59.631Z,1.20
2023-02-08T13:28:08.946Z,1.00
2023-02-08T13:33:22.205Z,1.10
2023-02-08T13:38:31.704Z,1.20
2023-02-08T13:48:48.700Z,1.20
2023-02-08T13:53:56.781Z,1.30
2023-02-08T13:59:01.059Z,1.30
2023-02-08T14:04:09.821Z,1.20
2023-02-08T14:09:36.254Z,1.30
2023-02-08T14:14:38.796Z,1.40
2023-02-08T14:19:44.402Z,1.10
2023-02-08T14:24:49.633Z,1.40
2023-02-08T14:30:21.912Z,1.10
2023-02-08T14:35:27.342Z,1.10
2023-02-08T14:40:31.480Z,1.50
2023-02-08T14:45:38.647Z,1.40
2023-02-08T14:50:51.058Z,1.30
2023-02-08T14:56:24.276Z,1.10
2023-02-08T15:01:29.002Z,1.60
2023-02-08T15:06:39.810Z,1.10
2023-02-08T15:11:41.980Z,1.20
2023-02-08T15:16:44.523Z,1.40
2023-02-08T15:21:46.167Z,1.30
2023-02-08T15:26:53.378Z,1.30
2023-02-08T15:31:56.185Z,1.30
2023-02-08T15:36:57.931Z,1.10
2023-02-08T15:42:00.250Z,1.20
2023-02-08T15:47:15.146Z,1.70
2023-02-08T15:52:19.815Z,1.50
2023-02-08T15:57:39.467Z,1.50
2023-02-08T16:02:42.387Z,1.50
2023-02-08T16:07:45.999Z,1.40
2023-02-08T16:17:52.956Z,1.80
2023-02-08T16:23:01.269Z,1.70
2023-02-08T16:28:04.787Z,2.20
2023-02-08T16:33:08.744Z,2.00
2023-02-08T16:38:15.267Z,1.60
2023-02-08T16:43:31.689Z,1.80
2023-02-08T16:48:37.315Z,1.80
2023-02-08T16:53:42.206Z,1.90
2023-02-08T16:58:44.365Z,1.70
2023-02-08T17:03:46.164Z,1.70
2023-02-08T17:08:47.990Z,2.20
2023-02-08T17:13:49.730Z,1.90
2023-02-08T17:18:52.513Z,2.00
2023-02-08T17:23:54.149Z,2.20
2023-02-08T17:28:57.392Z,1.80
2023-02-08T17:34:04.292Z,2.20
2023-02-08T17:39:06.385Z,2.00
2023-02-08T17:44:08.317Z,2.30
2023-02-08T17:49:10.062Z,2.10
2023-02-08T17:54:12.307Z,2.20
2023-02-08T17:59:13.988Z,2.10
2023-02-08T18:04:15.746Z,2.30
2023-02-08T18:09:18.607Z,1.80
2023-02-08T18:14:20.465Z,1.60
2023-02-08T18:19:22.741Z,1.70
2023-02-08T18:24:24.381Z,2.10
2023-02-08T18:29:26.293Z,2.00
2023-02-08T18:34:27.943Z,2.50
2023-02-08T18:39:29.736Z,2.60
2023-02-08T18:44:31.616Z,2.80
2023-02-08T18:49:40.302Z,3.20
2023-02-08T18:54:41.963Z,2.70
2023-02-08T18:59:43.651Z,2.20
2023-02-08T19:04:45.331Z,2.40
2023-02-08T19:09:47.613Z,2.50
2023-02-08T19:14:50.866Z,2.50
2023-02-08T19:19:52.470Z,3.00
2023-02-08T19:24:54.468Z,2.80
2023-02-08T19:29:56.492Z,2.60
2023-02-08T19:34:59.074Z,2.30
2023-02-08T19:40:01.138Z,2.20
2023-02-08T19:45:03.604Z,2.10
2023-02-08T19:50:05.715Z,3.40
2023-02-08T19:55:07.463Z,3.70
2023-02-08T20:00:22.453Z,2.50
2023-02-08T20:10:27.506Z,2.60
2023-02-08T20:15:29.495Z,2.30
2023-02-08T20:20:32.112Z,3.30
2023-02-08T20:25:34.894Z,2.90
2023-02-08T20:30:36.841Z,3.10
2023-02-08T20:35:38.613Z,2.90
2023-02-08T20:40:40.228Z,2.10
2023-02-08T20:45:42.781Z,2.80
2023-02-08T20:50:45.213Z,2.30
2023-02-08T20:55:47.191Z,2.10
2023-02-08T21:00:48.781Z,2.40
2023-02-08T21:05:50.459Z,3.40
2023-02-08T21:10:52.107Z,4.20
2023-02-08T21:15:53.803Z,2.40
2023-02-08T21:20:55.440Z,2.80
2023-02-08T21:25:59.089Z,2.80
2023-02-08T21:31:11.101Z,1.70
2023-02-08T21:36:18.907Z,2.00
2023-02-08T21:41:23.971Z,2.50
2023-02-08T21:46:28.331Z,1.90
2023-02-08T21:51:49.162Z,2.70
2023-02-08T21:56:51.272Z,1.10
2023-02-08T22:01:53.116Z,2.70
2023-02-08T22:06:54.742Z,1.70
2023-02-08T22:11:57.451Z,2.40
2023-02-08T22:16:59.086Z,3.10
2023-02-08T22:22:02.341Z,2.80
2023-02-08T22:27:04.425Z,2.80
2023-02-08T22:32:07.493Z,2.30
2023-02-08T22:37:09.418Z,2.70
2023-02-08T22:42:14.116Z,2.40
2023-02-08T22:47:16.190Z,3.00
2023-02-08T22:52:18.034Z,3.90
2023-02-08T22:57:20.340Z,2.80
2023-02-08T23:02:23.238Z,2.70
2023-02-08T23:07:24.984Z,2.70
2023-02-08T23:12:26.811Z,3.10
2023-02-08T23:17:28.646Z,3.20
2023-02-08T23:22:30.361Z,2.80
2023-02-08T23:27:32.022Z,2.70
2023-02-08T23:32:33.663Z,2.40
2023-02-08T23:37:35.732Z,1.20
2023-02-08T23:42:37.348Z,4.20
2023-02-08T23:47:40.179Z,4.90
2023-02-08T23:52:41.794Z,2.00
2023-02-08T23:57:43.426Z,1.40
